Time;durP1;ratioP1;P1;durP2;ratioP2;P2;SDS_P1;SDS_P2;PMS_P1;PMS_P2;Temp;Humidity;BMP_temperature;BMP_pressure;BME280_temperature;BME280_humidity;BME280_pressure;Samples;Min_cycle;Max_cycle;Signal;HPM_P1;HPM_P2
2022/06/12 00:00:48;;;;;;;10.25;9.95;;;16.90;99.90;;;;;;6332211;22;20231;-83
2022/06/12 00:03:19;;;;;;;10.40;10.10;;;16.90;99.90;;;;;;6331623;22;20185;-83
2022/06/12 00:05:50;;;;;;;10.27;9.98;;;16.90;99.90;;;;;;6324679;22;20213;-83
2022/06/12 00:08:20;;;;;;;10.23;9.93;;;16.90;99.90;;;;;;6322564;22;20745;-83
2022/06/12 00:10:52;;;;;;;10.35;10.05;;;16.80;99.90;;;;;;6350974;22;20255;-83
2022/06/12 00:13:25;;;;;;;10.05;9.75;;;16.80;99.90;;;;;;6351023;22;20242;-83
2022/06/12 00:15:53;;;;;;;10.20;9.90;;;16.70;99.90;;;;;;6350057;22;20193;-83
2022/06/12 00:18:23;;;;;;;10.52;10.23;;;16.70;99.90;;;;;;6349882;22;20200;-83
2022/06/12 00:21:10;;;;;;;10.57;10.27;;;16.60;99.90;;;;;;6351037;22;20220;-83
2022/06/12 00:23:39;;;;;;;10.48;10.18;;;16.60;99.90;;;;;;6351968;22;20187;-83
2022/06/12 00:26:07;;;;;;;10.40;10.10;;;16.50;99.90;;;;;;6351820;22;20224;-83
2022/06/12 00:28:35;;;;;;;10.30;10.00;;;16.40;99.90;;;;;;6352074;22;20248;-83
2022/06/12 00:31:03;;;;;;;10.52;10.23;;;16.40;99.90;;;;;;6351904;22;20284;-83
2022/06/12 00:33:32;;;;;;;10.55;10.25;;;16.30;99.90;;;;;;6352063;22;20227;-83
2022/06/12 00:36:00;;;;;;;10.50;10.20;;;16.30;99.90;;;;;;6351241;22;20196;-83
2022/06/12 00:38:28;;;;;;;10.43;10.13;;;16.20;99.90;;;;;;6351661;22;20223;-84
2022/06/12 00:40:55;;;;;;;10.38;10.07;;;16.20;99.90;;;;;;6352137;22;20207;-83
2022/06/12 00:43:27;;;;;;;10.40;10.10;;;16.10;99.90;;;;;;6352180;22;20239;-83
2022/06/12 00:45:59;;;;;;;10.40;10.10;;;16.10;99.90;;;;;;6351798;22;20199;-83
2022/06/12 00:48:32;;;;;;;10.90;10.60;;;16.10;99.90;;;;;;6352269;22;20275;-83
2022/06/12 00:51:05;;;;;;;10.80;10.50;;;16.10;99.90;;;;;;6352854;22;20203;-83
2022/06/12 00:53:37;;;;;;;10.40;10.10;;;16.00;99.90;;;;;;6351727;22;20200;-83
2022/06/12 00:56:16;;;;;;;10.40;10.10;;;15.90;99.90;;;;;;6352052;22;20258;-83
2022/06/12 00:58:48;;;;;;;10.70;10.40;;;15.90;99.90;;;;;;6351985;22;20196;-83
2022/06/12 01:01:22;;;;;;;10.70;10.40;;;15.80;99.90;;;;;;6351362;22;20188;-83
2022/06/12 01:06:37;;;;;;;10.57;10.27;;;15.80;99.90;;;;;;6351986;22;20184;-83
2022/06/12 01:09:10;;;;;;;10.60;10.30;;;15.80;99.90;;;;;;6352446;22;20287;-83
2022/06/12 01:11:40;;;;;;;10.48;10.18;;;15.80;99.90;;;;;;6352959;22;20202;-83
2022/06/12 01:14:11;;;;;;;10.45;10.15;;;15.70;99.90;;;;;;6352137;22;20192;-83
2022/06/12 01:16:45;;;;;;;10.52;10.23;;;15.70;99.90;;;;;;6351961;22;20189;-83
2022/06/12 01:19:23;;;;;;;10.43;10.13;;;15.70;99.90;;;;;;6351478;22;20254;-83
2022/06/12 01:22:48;;;;;;;10.80;10.50;;;15.60;99.90;;;;;;6351252;22;20195;-83
2022/06/12 01:25:46;;;;;;;10.50;10.20;;;15.60;99.90;;;;;;6350895;22;21013;-83
2022/06/12 01:28:44;;;;;;;10.52;10.23;;;15.50;99.90;;;;;;6350923;22;20216;-83
2022/06/12 01:31:34;;;;;;;10.43;10.13;;;15.40;99.90;;;;;;6351171;22;20200;-83
2022/06/12 01:34:14;;;;;;;10.40;10.10;;;15.40;99.90;;;;;;6350955;22;20211;-83
2022/06/12 01:36:49;;;;;;;10.77;10.48;;;15.40;99.90;;;;;;6351340;22;20275;-83
2022/06/12 01:39:30;;;;;;;10.55;10.25;;;15.30;99.90;;;;;;6360960;22;20270;-83
2022/06/12 01:42:12;;;;;;;10.50;10.20;;;15.30;99.90;;;;;;6362342;22;20196;-83
2022/06/12 01:44:49;;;;;;;10.38;10.07;;;15.20;99.90;;;;;;6360406;22;20184;-82
2022/06/12 01:47:28;;;;;;;10.60;10.30;;;15.20;99.90;;;;;;6355318;22;20211;-83
2022/06/12 01:50:10;;;;;;;10.35;10.05;;;15.10;99.90;;;;;;6354749;22;20196;-83
2022/06/12 01:52:51;;;;;;;10.13;9.82;;;15.10;99.90;;;;;;6354281;22;20257;-83
2022/06/12 01:55:31;;;;;;;10.55;10.25;;;15.10;99.90;;;;;;6352563;22;20189;-83
2022/06/12 01:58:08;;;;;;;10.50;10.20;;;15.10;99.90;;;;;;6352546;22;20196;-83
2022/06/12 02:00:39;;;;;;;10.30;10.00;;;15.00;99.90;;;;;;6352645;22;20216;-82
2022/06/12 02:03:12;;;;;;;10.60;10.30;;;15.00;99.90;;;;;;6352681;22;20191;-83
2022/06/12 02:05:46;;;;;;;10.50;10.20;;;15.00;99.90;;;;;;6351775;22;20650;-83
2022/06/12 02:08:19;;;;;;;10.40;10.10;;;15.00;99.90;;;;;;6352134;22;20176;-83
2022/06/12 02:13:11;;;;;;;10.35;10.05;;;15.00;99.90;;;;;;6352619;22;20196;-83
2022/06/12 02:13:48;;;;;;;10.27;9.98;;;15.00;99.90;;;;;;6351493;22;20204;-82
2022/06/12 02:16:23;;;;;;;10.43;10.13;;;14.90;99.90;;;;;;6352005;22;20243;-82
2022/06/12 02:18:55;;;;;;;10.43;10.13;;;14.90;99.90;;;;;;6352670;22;20207;-82
2022/06/12 02:21:27;;;;;;;10.25;9.95;;;14.90;99.90;;;;;;6370161;22;20192;-82
2022/06/12 02:24:03;;;;;;;10.20;9.90;;;14.90;99.90;;;;;;6369434;22;20199;-82
2022/06/12 02:26:37;;;;;;;10.18;9.88;;;14.90;99.90;;;;;;6365488;22;20214;-82
2022/06/12 02:29:11;;;;;;;10.27;9.98;;;14.90;99.90;;;;;;6355893;22;20204;-82
2022/06/12 02:31:45;;;;;;;10.43;10.13;;;14.90;99.90;;;;;;6353767;22;20223;-82
2022/06/12 02:34:22;;;;;;;10.30;10.00;;;14.90;99.90;;;;;;6354368;22;20308;-82
2022/06/12 02:36:55;;;;;;;10.30;10.00;;;14.80;99.90;;;;;;6353203;22;20192;-82
2022/06/12 02:39:27;;;;;;;10.20;9.90;;;14.80;99.90;;;;;;6353616;22;20251;-82
2022/06/12 02:42:04;;;;;;;9.98;9.68;;;14.80;99.90;;;;;;6352962;22;20275;-82
2022/06/12 02:44:39;;;;;;;10.30;10.00;;;14.80;99.90;;;;;;6352227;22;20216;-82
2022/06/12 02:47:15;;;;;;;10.45;10.15;;;14.70;99.90;;;;;;6351810;22;20231;-82
2022/06/12 02:49:46;;;;;;;10.27;9.98;;;14.70;99.90;;;;;;6352105;22;20203;-82
2022/06/12 02:52:22;;;;;;;10.60;10.30;;;14.70;99.90;;;;;;6351270;22;20230;-82
2022/06/12 02:55:04;;;;;;;10.63;10.32;;;14.70;99.90;;;;;;6350294;22;20196;-82
2022/06/12 02:57:38;;;;;;;10.50;10.20;;;14.60;99.90;;;;;;6351087;22;20253;-82
2022/06/12 03:00:16;;;;;;;10.40;10.10;;;14.60;99.90;;;;;;6350707;22;20204;-82
2022/06/12 03:02:54;;;;;;;10.30;10.00;;;14.60;99.90;;;;;;6351201;22;20194;-82
2022/06/12 03:05:26;;;;;;;10.60;10.30;;;14.60;99.90;;;;;;6350064;22;20187;-82
2022/06/12 03:08:00;;;;;;;10.50;10.20;;;14.50;99.90;;;;;;6350853;22;20191;-83
2022/06/12 03:10:33;;;;;;;10.40;10.10;;;14.50;99.90;;;;;;6349910;22;20208;-82
2022/06/12 03:13:02;;;;;;;10.40;10.10;;;14.50;99.90;;;;;;6350937;22;20239;-82
2022/06/12 03:15:42;;;;;;;10.45;10.15;;;14.50;99.90;;;;;;6350288;22;20248;-82
2022/06/12 03:18:15;;;;;;;10.55;10.25;;;14.40;99.90;;;;;;6351150;22;20212;-83
2022/06/12 03:21:08;;;;;;;10.50;10.20;;;14.30;99.90;;;;;;6350263;22;20231;-83
2022/06/12 03:24:03;;;;;;;10.60;10.30;;;14.30;99.90;;;;;;6350953;22;20195;-83
2022/06/12 03:26:41;;;;;;;10.80;10.50;;;14.30;99.90;;;;;;6350007;22;20188;-82
2022/06/12 03:29:19;;;;;;;10.70;10.40;;;14.30;99.90;;;;;;6350280;22;20207;-83
2022/06/12 03:32:06;;;;;;;10.50;10.20;;;14.30;99.90;;;;;;6350395;22;20188;-83
2022/06/12 03:34:45;;;;;;;10.80;10.50;;;14.20;99.90;;;;;;6350234;22;20193;-83
2022/06/12 03:37:30;;;;;;;10.47;10.17;;;14.20;99.90;;;;;;6350122;22;20218;-83
2022/06/12 03:40:07;;;;;;;10.43;10.13;;;14.20;99.90;;;;;;6349315;22;20235;-81
2022/06/12 03:42:45;;;;;;;10.32;10.02;;;14.20;99.90;;;;;;6350470;22;20200;-84
2022/06/12 03:45:18;;;;;;;10.63;10.32;;;14.20;99.90;;;;;;6348913;22;20196;-83
2022/06/12 03:47:53;;;;;;;10.32;10.02;;;14.20;99.90;;;;;;6349592;22;20218;-83
2022/06/12 03:50:31;;;;;;;10.45;10.15;;;14.20;99.90;;;;;;6350097;22;20195;-83
2022/06/12 03:53:06;;;;;;;10.30;10.00;;;14.20;99.90;;;;;;6350330;22;20200;-82
2022/06/12 03:58:37;;;;;;;10.43;10.13;;;14.20;99.90;;;;;;6351288;22;20192;-83
2022/06/12 04:01:06;;;;;;;10.27;9.98;;;14.20;99.90;;;;;;6351631;22;20195;-82
2022/06/12 04:03:39;;;;;;;10.00;9.70;;;14.30;99.90;;;;;;6352003;22;20195;-83
2022/06/12 04:06:13;;;;;;;10.10;9.80;;;14.30;99.90;;;;;;6351512;22;20226;-83
2022/06/12 04:08:47;;;;;;;10.07;9.77;;;14.40;99.90;;;;;;6351230;22;20219;-82
2022/06/12 04:11:18;;;;;;;10.17;9.87;;;14.40;99.90;;;;;;6350434;22;20243;-83
2022/06/12 04:13:47;;;;;;;10.00;9.70;;;14.40;99.90;;;;;;6351132;22;20227;-82
2022/06/12 04:16:25;;;;;;;10.23;9.93;;;14.50;99.90;;;;;;6350605;22;20193;-83
2022/06/12 04:18:53;;;;;;;10.20;9.90;;;14.50;99.90;;;;;;6350784;22;20196;-83
2022/06/12 04:21:31;;;;;;;10.30;10.00;;;14.50;99.90;;;;;;6351007;22;20215;-83
2022/06/12 04:24:08;;;;;;;10.20;9.90;;;14.60;99.90;;;;;;6350334;22;20195;-82
2022/06/12 04:26:41;;;;;;;10.00;9.70;;;14.60;99.90;;;;;;6350129;22;20230;-83
2022/06/12 04:29:25;;;;;;;10.10;9.80;;;14.70;99.90;;;;;;6350432;22;20200;-83
2022/06/12 04:31:56;;;;;;;10.20;9.90;;;14.60;99.90;;;;;;6350220;22;20250;-83
2022/06/12 04:34:28;;;;;;;10.20;9.90;;;14.60;99.90;;;;;;6350429;22;20206;-83
2022/06/12 04:37:03;;;;;;;10.30;10.00;;;14.60;99.90;;;;;;6351039;22;20188;-83
2022/06/12 04:39:35;;;;;;;10.02;9.73;;;14.60;99.90;;;;;;6351306;22;20222;-83
2022/06/12 04:42:04;;;;;;;9.93;9.63;;;14.60;99.90;;;;;;6350203;22;20212;-83
2022/06/12 04:44:32;;;;;;;10.15;9.85;;;14.70;99.90;;;;;;6350133;22;20215;-83
2022/06/12 04:47:02;;;;;;;10.10;9.80;;;14.70;99.90;;;;;;6349862;22;20263;-82
2022/06/12 04:49:34;;;;;;;10.07;9.77;;;14.70;99.90;;;;;;6350313;22;20200;-83
2022/06/12 04:52:07;;;;;;;10.20;9.90;;;14.70;99.90;;;;;;6350019;22;20227;-83
2022/06/12 04:54:36;;;;;;;10.10;9.80;;;14.80;99.90;;;;;;6349839;22;20196;-82
2022/06/12 04:57:06;;;;;;;10.10;9.80;;;14.80;99.90;;;;;;6350401;22;20967;-82
2022/06/12 04:59:34;;;;;;;10.27;9.98;;;14.90;99.90;;;;;;6352333;22;20204;-82
2022/06/12 05:02:02;;;;;;;10.10;9.80;;;15.00;99.90;;;;;;6373851;22;20187;-83
2022/06/12 05:04:32;;;;;;;10.10;9.80;;;15.20;99.90;;;;;;6368936;22;20187;-83
2022/06/12 05:07:00;;;;;;;10.30;10.00;;;15.30;99.90;;;;;;6353963;22;20188;-82
2022/06/12 05:09:40;;;;;;;10.30;10.00;;;15.40;99.90;;;;;;6331795;22;20209;-84
2022/06/12 05:12:12;;;;;;;10.40;10.10;;;15.50;99.90;;;;;;6306790;22;20204;-84
2022/06/12 05:14:39;;;;;;;10.45;10.15;;;15.60;99.90;;;;;;6303174;22;20221;-84
2022/06/12 05:19:56;;;;;;;10.18;9.88;;;15.90;99.90;;;;;;6316103;22;20196;-85
2022/06/12 05:22:25;;;;;;;10.15;9.85;;;16.10;99.90;;;;;;6328934;22;20193;-85
2022/06/12 05:24:57;;;;;;;10.15;9.85;;;16.20;99.90;;;;;;6327398;22;20229;-85
2022/06/12 05:27:25;;;;;;;10.45;10.15;;;16.30;99.90;;;;;;6328369;22;20189;-85
2022/06/12 05:29:54;;;;;;;10.65;10.35;;;16.40;99.90;;;;;;6327410;22;20216;-85
2022/06/12 05:32:23;;;;;;;10.57;10.27;;;16.50;99.90;;;;;;6328385;22;20207;-85
2022/06/12 05:34:52;;;;;;;10.40;10.10;;;16.60;99.90;;;;;;6327810;22;20208;-85
2022/06/12 05:37:21;;;;;;;10.55;10.25;;;16.80;99.90;;;;;;6328427;22;20201;-84
2022/06/12 05:39:51;;;;;;;10.32;10.02;;;16.90;99.90;;;;;;6328369;22;20231;-85
2022/06/12 05:42:32;;;;;;;10.45;10.15;;;17.00;99.90;;;;;;6327909;22;20200;-85
2022/06/12 05:45:00;;;;;;;10.25;9.95;;;17.10;99.90;;;;;;6328927;22;20193;-84
2022/06/12 05:47:28;;;;;;;10.20;9.90;;;17.10;99.90;;;;;;6328047;22;20215;-84
2022/06/12 05:49:57;;;;;;;10.27;9.98;;;17.20;99.90;;;;;;6330740;22;20258;-84
2022/06/12 05:52:27;;;;;;;10.27;9.98;;;17.40;99.90;;;;;;6330227;22;20212;-84
2022/06/12 05:54:57;;;;;;;10.13;9.82;;;17.40;99.90;;;;;;6330340;22;20225;-83
2022/06/12 05:57:28;;;;;;;10.20;9.90;;;17.60;99.90;;;;;;6328327;22;20197;-84
2022/06/12 05:59:57;;;;;;;10.13;9.82;;;17.80;99.90;;;;;;6328353;22;20250;-84
2022/06/12 06:02:25;;;;;;;10.57;10.27;;;17.90;99.90;;;;;;6328210;22;20199;-84
2022/06/12 06:04:55;;;;;;;10.60;10.30;;;18.10;99.90;;;;;;6328204;22;20185;-83
2022/06/12 06:07:24;;;;;;;10.57;10.27;;;18.30;99.90;;;;;;6327913;22;20200;-84
2022/06/12 06:09:54;;;;;;;10.50;10.20;;;18.40;99.90;;;;;;6343259;22;20262;-84
2022/06/12 06:12:23;;;;;;;10.57;10.27;;;18.60;99.90;;;;;;6359027;22;20266;-84
2022/06/12 06:14:54;;;;;;;10.60;10.30;;;18.70;99.90;;;;;;6359080;22;20200;-85
2022/06/12 06:17:22;;;;;;;10.55;10.25;;;18.90;99.90;;;;;;6359451;22;20197;-84
2022/06/12 06:19:51;;;;;;;10.80;10.50;;;19.10;99.90;;;;;;6359694;22;20203;-85
2022/06/12 06:22:20;;;;;;;10.50;10.20;;;19.20;99.90;;;;;;6359330;22;20204;-83
2022/06/12 06:24:50;;;;;;;10.52;10.23;;;19.40;99.90;;;;;;6360658;22;20657;-85
2022/06/12 06:27:19;;;;;;;10.50;10.20;;;19.50;99.90;;;;;;6359667;22;20739;-85
2022/06/12 06:29:48;;;;;;;10.43;10.13;;;19.60;99.90;;;;;;6358764;22;20598;-85
2022/06/12 06:32:20;;;;;;;10.90;10.60;;;19.80;99.90;;;;;;6358117;22;20201;-85
2022/06/12 06:34:49;;;;;;;10.70;10.40;;;20.00;99.90;;;;;;6357964;22;20176;-85
2022/06/12 06:37:19;;;;;;;10.52;10.23;;;20.10;99.90;;;;;;6359313;22;20200;-85
2022/06/12 06:39:48;;;;;;;10.68;10.38;;;20.20;99.90;;;;;;6359134;22;20220;-85
2022/06/12 06:42:18;;;;;;;10.38;10.07;;;20.30;99.90;;;;;;6358286;22;20727;-84
2022/06/12 06:47:43;;;;;;;10.60;10.30;;;20.60;99.90;;;;;;6358970;22;20176;-84
2022/06/12 06:50:15;;;;;;;10.63;10.32;;;20.70;99.90;;;;;;6359524;22;20216;-84
2022/06/12 06:52:43;;;;;;;10.80;10.50;;;20.80;99.90;;;;;;6358065;22;20208;-84
2022/06/12 06:55:12;;;;;;;10.70;10.40;;;20.90;99.90;;;;;;6358803;22;20200;-84
2022/06/12 06:57:42;;;;;;;10.70;10.40;;;21.00;99.90;;;;;;6358196;22;20223;-84
2022/06/12 07:00:19;;;;;;;10.73;10.43;;;21.10;99.90;;;;;;6358095;22;20227;-83
2022/06/12 07:02:57;;;;;;;10.68;10.38;;;21.30;99.90;;;;;;6359671;22;20192;-83
2022/06/12 07:05:26;;;;;;;10.23;9.93;;;21.50;99.90;;;;;;6360471;22;20199;-84
2022/06/12 07:07:56;;;;;;;10.50;10.20;;;21.60;99.90;;;;;;6360640;22;20196;-84
2022/06/12 07:10:27;;;;;;;10.55;10.25;;;21.70;99.90;;;;;;6362134;22;20260;-84
2022/06/12 07:12:55;;;;;;;10.60;10.30;;;21.90;99.90;;;;;;6363415;22;20192;-86
2022/06/12 07:15:24;;;;;;;10.35;10.05;;;22.00;99.90;;;;;;6361578;22;20199;-84
2022/06/12 07:18:03;;;;;;;10.60;10.30;;;22.20;99.90;;;;;;6362108;22;20188;-84
2022/06/12 07:20:35;;;;;;;10.70;10.40;;;22.40;99.90;;;;;;6361194;22;20191;-84
2022/06/12 07:23:03;;;;;;;10.50;10.20;;;22.50;99.90;;;;;;6362715;22;20192;-84
2022/06/12 07:25:31;;;;;;;10.65;10.35;;;22.60;99.90;;;;;;6359484;22;20196;-84
2022/06/12 07:28:01;;;;;;;10.70;10.40;;;22.70;99.90;;;;;;6360646;22;20197;-84
2022/06/12 07:30:30;;;;;;;10.98;10.68;;;22.80;99.90;;;;;;6360019;22;20238;-84
2022/06/12 07:33:02;;;;;;;11.00;10.70;;;23.00;99.90;;;;;;6370034;22;20220;-83
2022/06/12 07:35:30;;;;;;;10.90;10.60;;;23.10;99.90;;;;;;6368425;22;20662;-84
2022/06/12 07:37:58;;;;;;;11.02;10.73;;;23.20;99.90;;;;;;6364547;22;20196;-84
2022/06/12 07:40:39;;;;;;;11.10;10.80;;;23.40;99.90;;;;;;6363293;22;20196;-84
2022/06/12 07:43:08;;;;;;;10.80;10.50;;;23.50;99.90;;;;;;6361160;22;20202;-84
2022/06/12 07:45:36;;;;;;;10.90;10.60;;;23.70;99.90;;;;;;6371203;22;20176;-83
2022/06/12 07:48:07;;;;;;;10.88;10.57;;;23.90;99.90;;;;;;6374362;22;20212;-83
2022/06/12 07:53:21;;;;;;;10.82;10.52;;;24.10;99.90;;;;;;6360073;22;20301;-84
2022/06/12 07:55:51;;;;;;;10.40;10.10;;;24.30;99.90;;;;;;6363511;22;20259;-84
2022/06/12 07:58:20;;;;;;;10.32;10.02;;;24.40;99.90;;;;;;6363449;22;20192;-84
2022/06/12 08:00:49;;;;;;;10.48;10.18;;;24.50;99.90;;;;;;6362551;22;20211;-84
2022/06/12 08:03:27;;;;;;;10.55;10.25;;;24.70;99.90;;;;;;6361735;22;20221;-84
2022/06/12 08:05:57;;;;;;;10.40;10.10;;;24.80;99.90;;;;;;6361071;22;20196;-84
2022/06/12 08:08:26;;;;;;;10.40;10.10;;;24.90;99.90;;;;;;6361913;22;20203;-84
2022/06/12 08:10:55;;;;;;;10.18;9.88;;;25.10;99.90;;;;;;6361409;22;20187;-84
2022/06/12 08:13:25;;;;;;;10.55;10.25;;;25.30;99.90;;;;;;6370341;22;20196;-84
2022/06/12 08:15:55;;;;;;;10.55;10.25;;;25.30;99.90;;;;;;6367329;22;20180;-84
2022/06/12 08:18:33;;;;;;;10.30;10.00;;;25.30;99.90;;;;;;6367194;22;20189;-84
2022/06/12 08:21:05;;;;;;;10.68;10.38;;;25.50;99.90;;;;;;6364456;22;20206;-84
2022/06/12 08:26:27;;;;;;;10.38;10.07;;;25.70;99.90;;;;;;6360839;22;20196;-83
2022/06/12 08:28:59;;;;;;;10.07;9.77;;;25.90;99.90;;;;;;6360920;22;20196;-83
2022/06/12 08:31:36;;;;;;;10.20;9.90;;;26.10;99.90;;;;;;6361128;22;20191;-84
2022/06/12 08:34:16;;;;;;;10.70;10.40;;;26.10;99.90;;;;;;6364207;22;20200;-84
2022/06/12 08:36:46;;;;;;;10.60;10.30;;;26.20;99.90;;;;;;6362961;22;20198;-84
2022/06/12 08:39:15;;;;;;;10.30;10.00;;;26.30;99.90;;;;;;6362033;22;20196;-84
2022/06/12 08:41:52;;;;;;;10.40;10.10;;;26.40;99.90;;;;;;6362016;22;20199;-84
2022/06/12 08:44:31;;;;;;;10.57;10.27;;;26.60;99.90;;;;;;6364941;22;20187;-84
2022/06/12 08:47:10;;;;;;;10.68;10.38;;;26.80;99.90;;;;;;6363066;22;20191;-84
2022/06/12 08:49:47;;;;;;;10.48;10.18;;;27.00;99.90;;;;;;6364769;22;20211;-84
2022/06/12 08:52:34;;;;;;;10.70;10.40;;;27.20;99.90;;;;;;6364209;22;20192;-84
2022/06/12 08:55:13;;;;;;;10.45;10.15;;;27.30;99.90;;;;;;6362941;22;20184;-86
2022/06/12 08:57:51;;;;;;;10.73;10.43;;;27.50;99.90;;;;;;6362718;22;20200;-85
2022/06/12 09:00:22;;;;;;;10.63;10.32;;;27.70;99.90;;;;;;6364170;22;20206;-84
2022/06/12 09:02:51;;;;;;;10.80;10.50;;;27.90;99.90;;;;;;6361884;22;20253;-84
2022/06/12 09:05:28;;;;;;;10.55;10.25;;;28.10;99.90;;;;;;6362094;22;20220;-85
2022/06/12 09:08:07;;;;;;;10.70;10.40;;;28.30;99.90;;;;;;6361671;22;20236;-84
2022/06/12 09:10:45;;;;;;;10.55;10.25;;;28.50;99.90;;;;;;6361958;22;20196;-84
2022/06/12 09:13:22;;;;;;;10.50;10.20;;;28.70;99.90;;;;;;6363301;22;20203;-84
2022/06/12 09:16:00;;;;;;;10.20;9.90;;;28.90;99.90;;;;;;6362578;22;20188;-84
2022/06/12 09:18:41;;;;;;;10.10;9.80;;;29.20;99.90;;;;;;6363090;22;20188;-84
2022/06/12 09:21:17;;;;;;;10.30;10.00;;;29.20;99.90;;;;;;6362030;22;20204;-84
2022/06/12 09:24:04;;;;;;;10.25;9.95;;;29.30;99.90;;;;;;6362761;22;20246;-84
2022/06/12 09:29:39;;;;;;;10.60;10.30;;;29.80;99.90;;;;;;6361218;22;20196;-85
2022/06/12 09:32:18;;;;;;;10.43;10.13;;;29.70;99.90;;;;;;6365801;22;20223;-85
2022/06/12 09:34:54;;;;;;;10.07;9.77;;;29.70;99.90;;;;;;6359349;22;20203;-84
2022/06/12 09:40:46;;;;;;;10.82;10.52;;;29.40;99.90;;;;;;6268533;22;20190;-84
2022/06/12 09:43:27;;;;;;;10.15;9.85;;;29.40;99.90;;;;;;6268844;22;20210;-84
2022/06/12 09:46:03;;;;;;;10.40;10.10;;;29.70;99.90;;;;;;6320063;22;20224;-84
2022/06/12 09:48:58;;;;;;;10.50;10.20;;;29.80;99.90;;;;;;6361936;22;20195;-84
2022/06/12 09:51:55;;;;;;;10.43;10.13;;;29.70;99.90;;;;;;6362036;22;20247;-84
2022/06/12 09:54:50;;;;;;;10.60;10.30;;;30.00;99.90;;;;;;6371505;22;20192;-85
2022/06/12 09:57:38;;;;;;;10.50;10.20;;;29.90;99.90;;;;;;6367840;22;20199;-85
2022/06/12 10:00:16;;;;;;;10.52;10.23;;;29.70;99.90;;;;;;6364580;22;20197;-85
2022/06/12 10:02:54;;;;;;;10.60;10.30;;;29.80;99.90;;;;;;6364011;22;20184;-85
2022/06/12 10:05:33;;;;;;;10.48;10.18;;;30.30;99.90;;;;;;6361895;22;20214;-85
2022/06/12 10:08:10;;;;;;;10.48;10.18;;;30.70;99.90;;;;;;6361168;22;20239;-85
2022/06/12 10:10:48;;;;;;;10.32;10.02;;;30.70;99.90;;;;;;6369520;22;20199;-83
2022/06/12 10:13:27;;;;;;;10.70;10.40;;;30.50;99.90;;;;;;6370446;22;20192;-83
2022/06/12 10:18:51;;;;;;;10.50;10.20;;;30.60;99.90;;;;;;6362443;22;20191;-84
2022/06/12 10:21:22;;;;;;;10.48;10.18;;;30.80;99.90;;;;;;6364456;22;21044;-85
2022/06/12 10:23:52;;;;;;;10.55;10.25;;;30.70;99.90;;;;;;6364845;22;20200;-84
2022/06/12 10:26:29;;;;;;;10.65;10.35;;;30.50;99.90;;;;;;6363925;22;20219;-86
2022/06/12 10:29:20;;;;;;;10.75;10.45;;;30.50;99.90;;;;;;6363079;22;20200;-83
2022/06/12 10:31:55;;;;;;;10.30;10.00;;;30.70;99.90;;;;;;6362319;22;20188;-84
2022/06/12 10:34:28;;;;;;;10.48;10.18;;;30.90;99.90;;;;;;6364823;22;20199;-84
2022/06/12 10:36:57;;;;;;;10.43;10.13;;;30.90;99.90;;;;;;6362274;22;20191;-85
2022/06/12 10:39:27;;;;;;;10.80;10.50;;;30.80;99.90;;;;;;6362114;22;20217;-85
2022/06/12 10:44:50;;;;;;;10.63;10.32;;;31.40;99.90;;;;;;6359146;22;20211;-85
2022/06/12 10:47:22;;;;;;;10.30;10.00;;;31.70;99.90;;;;;;6360715;22;20188;-85
2022/06/12 10:50:06;;;;;;;10.52;10.23;;;31.80;99.90;;;;;;6360760;22;20257;-85
2022/06/12 10:52:36;;;;;;;10.68;10.38;;;32.30;99.90;;;;;;6360830;22;20249;-85
2022/06/12 10:55:14;;;;;;;10.60;10.30;;;32.60;99.90;;;;;;6358816;22;20202;-85
2022/06/12 10:57:52;;;;;;;10.60;10.30;;;32.50;99.90;;;;;;6360459;22;20192;-85
2022/06/12 11:00:23;;;;;;;10.38;10.07;;;32.10;99.90;;;;;;6359708;22;20212;-85
2022/06/12 11:03:09;;;;;;;10.55;10.25;;;31.50;99.90;;;;;;6359846;22;20272;-84
2022/06/12 11:06:07;;;;;;;10.57;10.27;;;31.70;99.90;;;;;;6358151;22;20176;-84
2022/06/12 11:09:11;;;;;;;10.50;10.20;;;31.90;99.90;;;;;;6357287;22;20188;-84
2022/06/12 17:11:08;;;;;;;11.20;10.90;;;31.10;99.90;;;;;;6276735;22;20209;-85
2022/06/12 17:13:38;;;;;;;11.23;10.93;;;30.80;99.90;;;;;;6293977;22;20198;-85
2022/06/12 17:16:07;;;;;;;11.40;11.10;;;30.90;99.90;;;;;;6293909;22;20272;-85
2022/06/12 17:21:26;;;;;;;11.50;11.10;;;30.60;99.90;;;;;;6312431;22;20209;-85
2022/06/12 17:23:54;;;;;;;11.30;11.00;;;30.50;99.90;;;;;;6326210;22;20189;-85
2022/06/12 17:26:32;;;;;;;11.20;10.90;;;30.40;99.90;;;;;;6324523;22;20192;-85
2022/06/12 17:28:59;;;;;;;11.10;10.80;;;30.00;99.90;;;;;;6325740;22;20193;-85
2022/06/12 17:31:29;;;;;;;11.15;10.85;;;29.60;99.90;;;;;;6324930;22;20254;-86
2022/06/12 17:33:58;;;;;;;11.10;10.80;;;29.40;99.90;;;;;;6324084;22;20205;-85
2022/06/12 17:36:27;;;;;;;11.18;10.88;;;29.40;99.90;;;;;;6323747;22;20227;-86
2022/06/12 17:38:57;;;;;;;11.20;10.90;;;29.70;99.90;;;;;;6323846;22;20200;-85
2022/06/12 17:41:35;;;;;;;11.00;10.70;;;29.70;99.90;;;;;;6325215;22;20200;-86
2022/06/12 17:44:05;;;;;;;11.02;10.73;;;30.00;99.90;;;;;;6325290;22;20227;-85
2022/06/12 17:46:34;;;;;;;11.20;10.90;;;30.40;99.90;;;;;;6324232;22;20193;-86
2022/06/12 17:49:03;;;;;;;11.10;10.80;;;30.50;99.90;;;;;;6325151;22;20243;-86
2022/06/12 17:51:33;;;;;;;11.02;10.73;;;30.50;99.90;;;;;;6324534;22;20262;-85
2022/06/12 17:54:02;;;;;;;11.05;10.75;;;30.40;99.90;;;;;;6324199;22;20284;-85
2022/06/12 17:59:19;;;;;;;11.00;10.70;;;29.90;99.90;;;;;;6325190;22;20196;-85
2022/06/12 18:01:48;;;;;;;11.45;11.07;;;29.80;99.90;;;;;;6324157;22;20204;-86
2022/06/12 18:04:18;;;;;;;11.10;10.80;;;29.80;99.90;;;;;;6323886;22;20208;-86
2022/06/12 18:06:47;;;;;;;11.20;10.90;;;29.60;99.90;;;;;;6323235;22;20197;-85
2022/06/12 18:09:16;;;;;;;10.90;10.60;;;29.50;99.90;;;;;;6326938;22;20195;-86
2022/06/12 18:20:00;;;;;;;10.90;10.60;;;29.20;99.90;;;;;;6285706;22;20215;-86
2022/06/12 18:22:28;;;;;;;10.95;10.65;;;29.20;99.90;;;;;;6355037;22;20187;-86
2022/06/12 18:24:57;;;;;;;11.02;10.73;;;29.10;99.90;;;;;;6355088;22;20263;-86
2022/06/12 18:30:15;;;;;;;10.80;10.50;;;29.20;99.90;;;;;;6353034;22;20192;-86
2022/06/12 18:32:43;;;;;;;10.95;10.65;;;29.30;99.90;;;;;;6355558;22;20277;-85
2022/06/12 18:35:15;;;;;;;10.90;10.60;;;29.30;99.90;;;;;;6353790;22;20239;-85
2022/06/12 18:37:44;;;;;;;10.95;10.65;;;29.30;99.90;;;;;;6358930;22;20223;-85
2022/06/12 18:40:14;;;;;;;10.95;10.65;;;29.10;99.90;;;;;;6354319;22;20196;-86
2022/06/12 18:42:45;;;;;;;11.13;10.82;;;28.90;99.90;;;;;;6353557;22;20226;-86
2022/06/12 18:45:13;;;;;;;11.02;10.73;;;28.40;99.90;;;;;;6353819;22;20192;-85
2022/06/12 18:47:42;;;;;;;10.77;10.48;;;28.00;99.90;;;;;;6355090;22;20215;-86
2022/06/12 18:50:11;;;;;;;10.93;10.63;;;27.70;99.90;;;;;;6354117;22;20223;-85
2022/06/12 18:52:40;;;;;;;10.82;10.52;;;27.50;99.90;;;;;;6354505;22;20196;-86
2022/06/12 18:55:10;;;;;;;10.98;10.68;;;27.50;99.90;;;;;;6353644;22;20272;-86
2022/06/12 18:57:40;;;;;;;10.80;10.50;;;27.50;99.90;;;;;;6354315;22;20202;-86
2022/06/12 19:00:17;;;;;;;10.80;10.50;;;27.30;99.90;;;;;;6354413;22;20200;-86
2022/06/12 19:02:47;;;;;;;10.80;10.50;;;27.20;99.90;;;;;;6354979;22;20215;-86
2022/06/12 19:05:16;;;;;;;10.82;10.52;;;27.10;99.90;;;;;;6355144;22;20199;-86
2022/06/12 19:07:47;;;;;;;10.70;10.40;;;26.90;99.90;;;;;;6354104;22;20215;-86
2022/06/12 19:10:16;;;;;;;10.80;10.50;;;26.70;99.90;;;;;;6355645;22;20196;-86
2022/06/12 19:12:45;;;;;;;10.68;10.38;;;26.70;99.90;;;;;;6355658;22;20220;-86
2022/06/12 19:15:23;;;;;;;10.73;10.43;;;26.60;99.90;;;;;;6358459;22;20207;-85
2022/06/12 19:17:52;;;;;;;10.70;10.40;;;26.60;99.90;;;;;;6370478;22;20219;-86
2022/06/12 19:20:22;;;;;;;10.80;10.50;;;26.60;99.90;;;;;;6359373;22;20192;-86
2022/06/12 19:22:51;;;;;;;10.70;10.40;;;26.50;99.90;;;;;;6356082;22;20202;-86
2022/06/12 19:25:22;;;;;;;11.38;10.98;;;26.30;99.90;;;;;;6354586;22;20265;-86
2022/06/12 19:27:50;;;;;;;10.63;10.32;;;26.30;99.90;;;;;;6355228;22;20184;-85
2022/06/12 19:30:30;;;;;;;10.80;10.50;;;26.10;99.90;;;;;;6356494;22;20200;-86
2022/06/12 19:32:58;;;;;;;10.68;10.38;;;26.10;99.90;;;;;;6355335;22;20200;-86
2022/06/12 19:35:28;;;;;;;10.55;10.25;;;25.90;99.90;;;;;;6355438;22;20208;-86
2022/06/12 19:37:57;;;;;;;10.70;10.40;;;25.60;99.90;;;;;;6355473;22;20192;-86
2022/06/12 19:40:27;;;;;;;10.80;10.50;;;25.40;99.90;;;;;;6354306;22;20262;-85
2022/06/12 19:42:57;;;;;;;10.85;10.55;;;25.40;99.90;;;;;;6356292;22;20887;-84
2022/06/12 19:45:35;;;;;;;10.90;10.60;;;25.40;99.90;;;;;;6356772;22;20185;-85